Time;durP1;ratioP1;P1;durP2;ratioP2;P2;SDS_P1;SDS_P2;PMS_P1;PMS_P2;Temp;Humidity;BMP_temperature;BMP_pressure;BME280_temperature;BME280_humidity;BME280_pressure;Samples;Min_cycle;Max_cycle;Signal;HPM_P1;HPM_P2
2023/04/24 00:00:45;;;;;;;3.10;2.90;;;9.00;99.90;10.40;95832.00;;;;5112797;28;20211;-66
2023/04/24 00:03:34;;;;;;;4.73;3.20;;;9.00;99.90;10.70;95819.00;;;;5107543;28;20604;-66
2023/04/24 00:06:23;;;;;;;4.30;2.83;;;9.00;99.90;10.60;95815.00;;;;5110688;27;21052;-66
2023/04/24 00:09:12;;;;;;;5.17;3.70;;;9.10;99.90;10.20;95813.00;;;;5110098;28;20221;-66
2023/04/24 00:12:02;;;;;;;4.30;3.90;;;9.00;99.90;10.30;95811.00;;;;5110451;28;20211;-65
2023/04/24 00:14:51;;;;;;;3.77;3.47;;;9.00;99.90;10.50;95807.00;;;;5105138;28;20692;-65
2023/04/24 00:17:41;;;;;;;3.20;2.90;;;9.00;99.90;9.90;95809.00;;;;5105344;28;20240;-67
2023/04/24 00:20:32;;;;;;;3.57;3.27;;;8.90;99.90;10.00;95795.00;;;;5110028;28;20202;-67
2023/04/24 00:23:20;;;;;;;3.70;3.30;;;8.80;99.90;10.30;95795.00;;;;5110362;28;20221;-67
2023/04/24 00:26:09;;;;;;;3.70;3.40;;;8.80;99.90;9.90;95795.00;;;;5111068;28;20202;-65
2023/04/24 00:28:58;;;;;;;3.03;2.80;;;8.70;99.90;9.90;95802.00;;;;5107255;28;20219;-65
2023/04/24 00:31:47;;;;;;;6.07;3.83;;;8.70;99.90;10.10;95801.00;;;;5103487;28;20750;-65
2023/04/24 00:34:37;;;;;;;4.17;3.60;;;8.70;99.90;9.90;95793.00;;;;5110673;27;20205;-65
2023/04/24 00:37:25;;;;;;;3.53;3.23;;;8.60;99.90;10.00;95789.00;;;;5110134;28;20207;-65
2023/04/24 00:40:14;;;;;;;4.33;3.10;;;8.60;99.90;9.30;95788.00;;;;5108646;28;20194;-67
2023/04/24 00:43:03;;;;;;;4.50;3.77;;;8.50;99.90;9.50;95780.00;;;;5109976;28;20243;-64
2023/04/24 00:45:52;;;;;;;4.53;3.27;;;8.40;99.90;9.60;95788.00;;;;5103707;28;20693;-65
2023/04/24 00:48:41;;;;;;;4.03;3.63;;;8.40;99.90;10.00;95780.00;;;;5099140;28;20202;-65
2023/04/24 00:51:32;;;;;;;3.93;3.57;;;8.40;99.90;10.10;95782.00;;;;5109166;28;20557;-65
2023/04/24 00:54:21;;;;;;;4.00;3.47;;;8.50;99.90;9.90;95777.00;;;;5104836;28;20192;-65
2023/04/24 00:57:10;;;;;;;3.53;3.13;;;8.50;99.90;9.50;95770.00;;;;5106262;28;20692;-65
2023/04/24 00:59:59;;;;;;;6.80;3.50;;;8.40;99.90;9.40;95758.00;;;;5105265;28;20271;-67
2023/04/24 01:02:49;;;;;;;4.67;3.80;;;8.30;99.90;9.50;95768.00;;;;5103525;28;20210;-66
2023/04/24 01:05:38;;;;;;;4.20;3.80;;;8.20;99.90;9.70;95780.00;;;;5109489;28;20198;-65
2023/04/24 01:08:29;;;;;;;6.13;3.33;;;8.20;99.90;9.90;95768.00;;;;5109673;28;20203;-65
2023/04/24 01:11:19;;;;;;;3.90;3.60;;;8.20;99.90;9.80;95770.00;;;;5109811;28;20228;-65
2023/04/24 01:14:08;;;;;;;5.43;3.87;;;8.30;99.90;10.00;95768.00;;;;5106711;28;20194;-66
2023/04/24 01:16:57;;;;;;;4.20;3.80;;;8.30;99.90;10.00;95773.00;;;;5105289;28;20617;-67
2023/04/24 01:19:46;;;;;;;5.70;3.97;;;8.40;99.90;9.80;95777.00;;;;5105953;28;20198;-66
2023/04/24 01:22:36;;;;;;;4.17;3.13;;;8.40;99.90;9.40;95770.00;;;;5101781;28;20697;-66
2023/04/24 01:25:27;;;;;;;4.47;3.50;;;8.30;99.90;9.30;95765.00;;;;5102564;28;20678;-66
2023/04/24 01:28:16;;;;;;;10.97;3.60;;;8.20;99.90;9.60;95767.00;;;;5102522;28;20207;-66
2023/04/24 01:31:05;;;;;;;9.83;4.47;;;8.20;99.90;9.40;95773.00;;;;5106600;28;20226;-66
2023/04/24 01:33:55;;;;;;;5.80;3.80;;;8.20;99.90;9.50;95775.00;;;;5105081;28;20206;-66
2023/04/24 01:36:46;;;;;;;4.17;3.47;;;8.20;99.90;9.50;95770.00;;;;5106018;28;20203;-67
2023/04/24 01:39:36;;;;;;;4.40;3.97;;;8.20;99.90;9.50;95761.00;;;;5100074;28;20244;-66
2023/04/24 01:42:25;;;;;;;3.37;3.07;;;8.10;99.90;9.50;95766.00;;;;5107059;28;20223;-66
2023/04/24 01:45:14;;;;;;;3.57;3.27;;;8.20;99.90;9.30;95772.00;;;;5109700;28;20205;-65
2023/04/24 01:48:03;;;;;;;4.30;3.90;;;8.10;99.90;9.20;95760.00;;;;5105496;28;20715;-65
2023/04/24 01:50:52;;;;;;;4.30;3.57;;;8.00;99.90;8.90;95767.00;;;;5107686;28;20221;-65
2023/04/24 01:53:41;;;;;;;4.13;3.73;;;7.90;99.90;9.20;95765.00;;;;5104654;28;20552;-66
2023/04/24 01:56:31;;;;;;;9.97;4.40;;;7.80;99.90;9.40;95759.00;;;;5109686;28;20578;-66
2023/04/24 01:59:22;;;;;;;5.27;4.63;;;7.90;99.90;9.40;95768.00;;;;5107395;28;20217;-66
2023/04/24 02:02:11;;;;;;;9.63;5.70;;;7.90;99.90;9.70;95757.00;;;;5103765;28;20215;-66
2023/04/24 02:05:00;;;;;;;4.03;3.70;;;8.00;99.90;9.80;95751.00;;;;5104330;28;20552;-66
2023/04/24 02:07:49;;;;;;;4.83;4.43;;;8.10;99.90;9.90;95743.00;;;;5108783;28;20210;-66
2023/04/24 02:10:37;;;;;;;5.33;4.70;;;8.20;99.90;10.00;95747.00;;;;5102828;28;20227;-66
2023/04/24 02:13:28;;;;;;;4.93;4.43;;;8.20;99.90;10.00;95737.00;;;;5101008;28;20764;-66
2023/04/24 02:16:16;;;;;;;7.50;4.00;;;8.20;99.90;9.50;95746.00;;;;5107813;28;20198;-68
2023/04/24 02:19:05;;;;;;;4.77;4.23;;;8.20;99.90;9.20;95728.00;;;;5107981;28;20195;-66
2023/04/24 02:21:54;;;;;;;10.23;5.17;;;8.10;99.90;9.50;95735.00;;;;5103738;28;20229;-66
2023/04/24 02:24:43;;;;;;;6.43;4.80;;;7.50;99.90;9.50;95723.00;;;;5109164;28;20202;-66
2023/04/24 02:27:31;;;;;;;5.70;4.80;;;8.10;99.90;9.10;95732.00;;;;5108403;28;20207;-67
2023/04/24 02:30:22;;;;;;;4.40;3.63;;;8.10;99.90;9.30;95726.00;;;;5107813;28;20226;-67
2023/04/24 02:33:10;;;;;;;6.27;4.67;;;8.00;99.90;9.50;95731.00;;;;5103549;28;20272;-67
2023/04/24 02:36:00;;;;;;;13.13;4.40;;;8.00;99.90;9.70;95728.00;;;;5104894;28;20236;-67
2023/04/24 02:38:48;;;;;;;4.73;4.20;;;8.10;99.90;9.70;95729.00;;;;5107899;28;20287;-67
2023/04/24 02:41:37;;;;;;;4.57;4.17;;;8.10;99.90;9.70;95721.00;;;;5106637;28;20631;-67
2023/04/24 02:44:26;;;;;;;6.07;4.07;;;8.10;99.90;9.80;95722.00;;;;5106241;28;20195;-67
2023/04/24 02:47:16;;;;;;;6.27;4.60;;;8.10;99.90;9.80;95708.00;;;;5101305;28;20275;-67
2023/04/24 02:50:06;;;;;;;6.20;5.20;;;8.10;99.90;9.90;95710.00;;;;5104773;28;20249;-67
2023/04/24 02:52:55;;;;;;;5.90;5.03;;;8.10;99.90;9.90;95706.00;;;;5104297;28;20297;-67
2023/04/24 02:55:44;;;;;;;4.90;4.40;;;8.20;99.90;9.80;95708.00;;;;5107675;28;20194;-67
2023/04/24 02:58:32;;;;;;;6.27;5.50;;;8.20;99.90;9.50;95700.00;;;;5105862;28;20235;-67
2023/04/24 03:01:21;;;;;;;5.50;4.80;;;8.10;99.90;9.40;95702.00;;;;5106751;28;20745;-67
2023/04/24 03:04:11;;;;;;;5.07;4.50;;;8.10;99.90;9.40;95696.00;;;;5104967;28;20202;-67
2023/04/24 03:07:01;;;;;;;7.63;4.70;;;8.00;99.90;9.60;95696.00;;;;5106802;28;20679;-67
2023/04/24 03:09:49;;;;;;;7.70;4.73;;;8.00;99.90;9.50;95697.00;;;;5102295;28;20198;-67
2023/04/24 03:12:38;;;;;;;7.73;4.60;;;8.00;99.90;9.10;95691.00;;;;5108698;28;20259;-67
2023/04/24 03:15:27;;;;;;;8.13;4.93;;;8.00;99.90;9.40;95689.00;;;;5107298;28;20604;-66
2023/04/24 03:18:16;;;;;;;6.63;5.70;;;8.00;99.90;9.60;95705.00;;;;5106084;28;20195;-65
2023/04/24 03:21:06;;;;;;;5.93;5.30;;;8.10;99.90;9.50;95708.00;;;;5107874;28;20202;-66
2023/04/24 03:23:55;;;;;;;8.23;5.30;;;8.10;99.90;9.60;95702.00;;;;5102306;28;20199;-66
2023/04/24 03:26:43;;;;;;;6.37;4.87;;;8.10;99.90;9.60;95698.00;;;;5102415;28;20691;-66
2023/04/24 03:29:32;;;;;;;5.23;4.73;;;8.10;99.90;9.10;95694.00;;;;5106305;28;20190;-67
2023/04/24 03:32:21;;;;;;;6.43;4.53;;;8.00;99.90;9.10;95689.00;;;;5106503;28;20226;-66
2023/04/24 03:35:10;;;;;;;5.80;4.07;;;7.90;99.90;9.40;95702.00;;;;5105669;28;20191;-66
2023/04/24 03:38:00;;;;;;;6.73;5.13;;;7.90;99.90;9.70;95693.00;;;;5107193;28;20199;-66
2023/04/24 03:40:49;;;;;;;5.90;5.10;;;8.00;99.90;9.40;95705.00;;;;5103446;28;20199;-66
2023/04/24 03:43:38;;;;;;;5.03;4.53;;;8.00;99.90;9.50;95699.00;;;;5101447;28;20555;-66
2023/04/24 03:46:26;;;;;;;6.43;4.70;;;8.10;99.90;9.30;95705.00;;;;5101510;28;20210;-66
2023/04/24 03:49:15;;;;;;;5.10;4.60;;;8.00;99.90;8.90;95706.00;;;;5101452;28;20200;-66
2023/04/24 03:52:04;;;;;;;5.30;4.40;;;8.00;99.90;8.70;95703.00;;;;5099864;28;20222;-67
2023/04/24 03:54:55;;;;;;;7.43;4.60;;;7.80;99.90;9.00;95710.00;;;;5107231;28;20244;-66
2023/04/24 03:57:43;;;;;;;5.57;4.97;;;7.80;99.90;9.20;95718.00;;;;5101385;28;20202;-66
2023/04/24 04:00:33;;;;;;;8.00;4.97;;;7.90;99.90;9.30;95724.00;;;;5103472;28;20238;-66
2023/04/24 04:03:21;;;;;;;6.87;5.43;;;7.90;99.90;9.80;95725.00;;;;5105735;28;20222;-66
2023/04/24 04:06:12;;;;;;;6.47;5.87;;;8.00;99.90;9.90;95722.00;;;;5099629;28;20207;-66
2023/04/24 04:09:01;;;;;;;6.30;5.30;;;8.10;99.90;10.10;95722.00;;;;5103368;28;20199;-66
2023/04/24 04:11:51;;;;;;;5.93;5.33;;;8.20;99.90;9.90;95727.00;;;;5104993;28;20896;-66
2023/04/24 04:14:40;;;;;;;7.73;6.03;;;8.30;99.90;9.70;95721.00;;;;5101375;28;20195;-66
2023/04/24 04:17:29;;;;;;;6.23;5.63;;;8.30;99.90;9.60;95721.00;;;;5106150;28;20195;-66
2023/04/24 04:20:18;;;;;;;8.30;5.93;;;8.30;99.90;9.70;95722.00;;;;5106730;28;20206;-66
2023/04/24 04:23:07;;;;;;;5.33;4.83;;;8.30;99.90;9.60;95717.00;;;;5111486;28;20706;-65
2023/04/24 04:25:56;;;;;;;5.33;4.83;;;8.30;99.90;9.90;95718.00;;;;5108223;28;20195;-66
2023/04/24 04:28:47;;;;;;;6.93;5.03;;;8.40;99.90;10.10;95724.00;;;;5104718;28;20208;-66
2023/04/24 04:31:36;;;;;;;7.20;5.27;;;8.40;99.90;10.30;95738.00;;;;5108757;28;20215;-66
2023/04/24 04:34:25;;;;;;;5.93;5.30;;;8.50;99.90;10.30;95740.00;;;;5104883;28;20209;-66
2023/04/24 04:37:14;;;;;;;7.53;6.60;;;8.60;99.90;10.00;95734.00;;;;5108869;28;20221;-66
2023/04/24 04:40:06;;;;;;;7.47;5.13;;;8.60;99.90;9.90;95737.00;;;;5107625;28;20324;-66
2023/04/24 04:42:55;;;;;;;7.60;5.47;;;8.60;99.90;10.00;95739.00;;;;5107434;27;20631;-66
2023/04/24 04:45:45;;;;;;;7.17;5.47;;;8.60;99.90;10.00;95741.00;;;;5096915;28;20271;-66
2023/04/24 04:48:35;;;;;;;6.30;5.57;;;8.60;99.90;10.00;95736.00;;;;5108305;28;20194;-66
2023/04/24 04:51:23;;;;;;;8.40;5.87;;;8.60;99.90;10.40;95739.00;;;;5107987;28;20224;-66
2023/04/24 04:54:12;;;;;;;6.70;5.97;;;8.70;99.90;10.70;95733.00;;;;5107061;28;20221;-66
2023/04/24 04:57:01;;;;;;;8.93;7.23;;;8.80;99.90;10.50;95739.00;;;;5103554;27;20199;-66
2023/04/24 04:59:51;;;;;;;7.03;6.37;;;8.80;99.90;10.50;95737.00;;;;5108130;27;20211;-66
2023/04/24 05:02:41;;;;;;;7.07;5.87;;;8.90;99.90;10.40;95742.00;;;;5095318;27;20705;-66
2023/04/24 05:05:30;;;;;;;7.50;5.77;;;8.90;99.90;10.30;95739.00;;;;5100269;28;20291;-66
2023/04/24 05:08:19;;;;;;;6.60;5.67;;;8.90;99.90;10.00;95736.00;;;;5104794;28;20245;-65
2023/04/24 05:11:13;;;;;;;5.90;5.33;;;8.80;99.90;10.20;95749.00;;;;5104558;28;20230;-66
2023/04/24 05:14:02;;;;;;;6.60;5.63;;;8.90;99.90;10.30;95754.00;;;;5093220;28;20280;-65
2023/04/24 05:16:51;;;;;;;6.10;5.50;;;8.80;99.90;10.50;95756.00;;;;5102903;28;20191;-65
2023/04/24 05:19:41;;;;;;;6.93;5.93;;;8.80;99.90;10.80;95748.00;;;;5102961;28;20206;-65
2023/04/24 05:22:29;;;;;;;9.97;6.50;;;8.90;99.90;10.40;95751.00;;;;5100031;28;20229;-65
2023/04/24 05:25:18;;;;;;;7.67;6.50;;;8.90;99.90;10.60;95744.00;;;;5109400;27;20700;-65
2023/04/24 05:28:07;;;;;;;7.83;7.03;;;9.00;99.90;10.60;95746.00;;;;5109943;27;20187;-65
2023/04/24 05:30:56;;;;;;;8.50;6.63;;;9.00;99.90;10.70;95750.00;;;;5104908;27;20247;-65
2023/04/24 05:33:45;;;;;;;7.83;5.97;;;9.00;99.90;10.80;95753.00;;;;5097757;28;20968;-65
2023/04/24 05:36:36;;;;;;;7.27;6.57;;;9.10;99.90;11.10;95764.00;;;;5107960;27;20665;-65
2023/04/24 05:39:25;;;;;;;8.90;7.13;;;9.20;99.90;11.40;95759.00;;;;5102162;27;20199;-65
2023/04/24 05:42:14;;;;;;;7.50;6.70;;;9.40;99.90;11.50;95761.00;;;;5102338;27;20250;-65
2023/04/24 05:45:03;;;;;;;7.23;6.53;;;9.50;99.90;11.60;95764.00;;;;5111891;27;20267;-65
2023/04/24 05:47:52;;;;;;;5.93;5.33;;;;;11.50;95752.00;;;;5108028;27;20203;-65
2023/04/24 05:50:41;;;;;;;5.87;5.37;;;;;11.50;95759.00;;;;5108130;27;20231;-65
2023/04/24 05:53:32;;;;;;;5.67;5.17;;;;;11.40;95746.00;;;;5110556;27;20946;-65
2023/04/24 05:56:21;;;;;;;5.73;5.20;;;;;10.90;95746.00;;;;5104575;27;20206;-66
2023/04/24 05:59:10;;;;;;;6.03;5.43;;;;;11.20;95749.00;;;;5100520;27;20210;-66
2023/04/24 06:01:59;;;;;;;12.47;6.50;;;;;11.60;95751.00;;;;5096455;28;20607;-65
2023/04/24 06:04:48;;;;;;;6.97;5.93;;;;;11.60;95743.00;;;;5099543;28;20206;-65
2023/04/24 06:07:37;;;;;;;6.50;5.83;;;;;11.70;95749.00;;;;5091745;28;20203;-65
2023/04/24 06:10:27;;;;;;;8.17;5.83;;;10.20;99.90;11.90;95750.00;;;;5096654;27;20214;-65
2023/04/24 06:13:16;;;;;;;6.73;6.03;;;10.20;99.90;12.00;95744.00;;;;5094633;28;20223;-65
2023/04/24 06:16:06;;;;;;;6.00;5.43;;;10.20;99.90;12.00;95742.00;;;;5097513;28;20251;-65
2023/04/24 06:18:55;;;;;;;8.43;6.10;;;10.30;99.90;12.00;95735.00;;;;5098092;28;20582;-65
2023/04/24 06:21:43;;;;;;;5.40;4.90;;;10.30;99.90;12.10;95741.00;;;;5102932;28;20229;-65
2023/04/24 06:24:32;;;;;;;7.50;6.03;;;10.40;99.90;12.10;95746.00;;;;5103199;28;21441;-65
2023/04/24 06:27:22;;;;;;;8.40;6.73;;;10.40;99.90;12.00;95745.00;;;;5103304;28;20210;-65
2023/04/24 06:30:12;;;;;;;13.90;8.90;;;10.40;99.90;12.10;95751.00;;;;5098207;28;20195;-65
2023/04/24 06:33:00;;;;;;;9.07;7.87;;;10.50;99.90;12.20;95745.00;;;;5095596;28;20239;-65
2023/04/24 06:35:53;;;;;;;7.43;6.27;;;10.50;99.90;12.10;95753.00;;;;5099589;28;20187;-65
2023/04/24 06:38:42;;;;;;;7.87;6.33;;;10.60;99.90;12.20;95757.00;;;;5099413;28;20658;-65
2023/04/24 06:41:31;;;;;;;8.03;6.20;;;10.60;99.90;12.10;95769.00;;;;5103199;28;20221;-65
2023/04/24 06:44:21;;;;;;;8.60;5.33;;;10.60;99.90;11.90;95766.00;;;;5107346;28;20199;-66
2023/04/24 06:47:10;;;;;;;9.40;6.53;;;10.50;99.90;12.10;95759.00;;;;5102186;28;20200;-65
2023/04/24 06:49:59;;;;;;;9.47;6.60;;;10.50;99.90;12.10;95757.00;;;;5101186;28;20194;-65
2023/04/24 06:52:48;;;;;;;9.37;7.23;;;10.50;99.90;12.50;95770.00;;;;5103892;28;20693;-65
2023/04/24 06:55:37;;;;;;;8.23;6.53;;;10.60;99.90;12.40;95772.00;;;;5107522;28;20208;-65
2023/04/24 06:58:26;;;;;;;8.93;7.10;;;10.60;99.90;12.20;95766.00;;;;5098389;28;20200;-65
2023/04/24 07:01:18;;;;;;;9.17;7.27;;;10.60;99.90;12.10;95771.00;;;;5105216;28;20206;-64
2023/04/24 07:04:06;;;;;;;7.90;6.60;;;10.60;99.90;12.00;95775.00;;;;5102402;28;20202;-65
2023/04/24 07:06:57;;;;;;;7.57;6.87;;;10.60;99.90;12.20;95777.00;;;;5100425;28;20218;-65
2023/04/24 07:09:46;;;;;;;6.33;5.73;;;10.60;99.90;11.90;95783.00;;;;5100798;28;20197;-65
2023/04/24 07:12:35;;;;;;;7.77;5.60;;;10.60;99.90;12.30;95782.00;;;;5100907;28;20307;-64
2023/04/24 07:15:24;;;;;;;7.87;6.20;;;10.60;99.90;12.70;95783.00;;;;5100336;28;20205;-65
2023/04/24 07:18:14;;;;;;;8.33;6.87;;;10.70;99.90;12.70;95789.00;;;;5104256;28;20572;-65
2023/04/24 07:21:03;;;;;;;10.97;7.00;;;10.80;99.90;13.00;95797.00;;;;5107475;28;20195;-64
2023/04/24 07:23:52;;;;;;;8.60;7.10;;;10.90;99.90;12.90;95789.00;;;;5102011;28;20247;-64
2023/04/24 07:26:41;;;;;;;10.10;7.70;;;11.00;99.90;12.90;95794.00;;;;5100355;28;20273;-64
2023/04/24 07:29:30;;;;;;;10.20;7.07;;;11.00;99.90;12.80;95793.00;;;;5103672;28;20203;-64
2023/04/24 07:32:18;;;;;;;6.63;5.27;;;11.10;99.90;13.00;95805.00;;;;5106011;28;20720;-65
2023/04/24 07:35:10;;;;;;;8.20;5.63;;;11.10;99.90;13.00;95801.00;;;;5107571;28;20198;-64
2023/04/24 07:37:59;;;;;;;9.73;5.40;;;11.10;99.90;12.70;95807.00;;;;5101945;28;20198;-65
2023/04/24 07:40:47;;;;;;;8.43;6.03;;;11.10;99.90;12.90;95813.00;;;;5102654;28;20199;-64
2023/04/24 07:43:36;;;;;;;8.00;5.93;;;11.20;99.90;12.60;95809.00;;;;5102073;28;20689;-64
2023/04/24 07:46:26;;;;;;;5.90;5.33;;;11.10;99.90;12.50;95818.00;;;;5106111;28;20195;-64
2023/04/24 07:49:15;;;;;;;11.20;5.93;;;11.10;99.90;12.50;95820.00;;;;5105231;28;20195;-64
2023/04/24 07:52:05;;;;;;;8.37;6.50;;;11.00;99.90;12.50;95814.00;;;;5107647;28;20214;-64
2023/04/24 07:54:58;;;;;;;7.53;6.47;;;11.00;99.90;12.70;95825.00;;;;5113808;27;20223;-65
2023/04/24 07:57:46;;;;;;;10.13;6.50;;;11.00;99.90;12.90;95827.00;;;;5097625;28;20201;-64
2023/04/24 08:00:35;;;;;;;8.00;6.77;;;11.00;99.90;13.10;95823.00;;;;5103322;28;20202;-65
2023/04/24 08:03:24;;;;;;;8.70;6.17;;;11.10;99.90;13.30;95830.00;;;;5108977;28;21212;-64
2023/04/24 08:06:13;;;;;;;7.73;6.53;;;11.20;99.90;13.40;95830.00;;;;5108469;28;20195;-65
2023/04/24 08:09:04;;;;;;;13.60;7.33;;;11.30;99.90;13.50;95836.00;;;;5110841;28;20195;-65
2023/04/24 08:11:53;;;;;;;10.07;7.30;;;11.30;99.90;13.50;95833.00;;;;5106682;28;20278;-65
2023/04/24 08:14:41;;;;;;;11.73;7.53;;;11.40;99.90;13.60;95840.00;;;;5102595;28;20234;-65
2023/04/24 08:17:30;;;;;;;9.80;8.80;;;11.50;99.90;13.50;95850.00;;;;5107723;28;20248;-65
2023/04/24 08:20:22;;;;;;;13.83;9.13;;;11.60;99.90;13.60;95837.00;;;;5109878;28;20199;-65
2023/04/24 08:23:10;;;;;;;10.70;7.40;;;11.60;99.90;13.60;95847.00;;;;5111066;27;20229;-65
2023/04/24 08:26:00;;;;;;;8.53;6.97;;;11.60;99.90;13.40;95856.00;;;;5106397;28;20199;-65
2023/04/24 08:28:49;;;;;;;9.77;7.67;;;11.50;99.90;13.50;95851.00;;;;5104773;28;20567;-66
2023/04/24 08:31:38;;;;;;;10.67;7.83;;;11.60;99.90;13.40;95850.00;;;;5106394;28;20242;-65
2023/04/24 08:34:27;;;;;;;11.23;8.17;;;11.60;99.90;13.30;95859.00;;;;5101816;28;20214;-65
2023/04/24 08:37:15;;;;;;;9.43;7.70;;;11.50;99.90;13.40;95860.00;;;;5111059;28;20194;-65
2023/04/24 08:40:11;;;;;;;8.67;7.77;;;11.50;99.90;13.50;95860.00;;;;5107100;28;20194;-65
2023/04/24 08:43:01;;;;;;;10.40;7.90;;;11.60;99.90;13.50;95872.00;;;;5108832;28;20252;-65
2023/04/24 08:45:50;;;;;;;11.67;9.40;;;11.60;99.90;13.10;95869.00;;;;5107175;28;20191;-65
2023/04/24 08:48:40;;;;;;;10.50;8.20;;;11.60;99.90;12.90;95884.00;;;;5110706;28;20198;-65
2023/04/24 08:51:30;;;;;;;10.27;8.70;;;11.50;99.90;12.90;95873.00;;;;5109007;28;20677;-64
2023/04/24 08:54:20;;;;;;;9.60;7.77;;;11.40;99.90;13.30;95873.00;;;;5098452;28;20222;-65
2023/04/24 08:57:11;;;;;;;9.77;8.13;;;11.50;99.90;13.30;95876.00;;;;5101184;28;20207;-64
2023/04/24 09:00:03;;;;;;;11.70;8.23;;;11.40;99.90;13.50;95883.00;;;;5108330;28;20218;-65
2023/04/24 09:02:54;;;;;;;11.77;8.63;;;11.50;99.90;13.60;95882.00;;;;5104699;28;20312;-65
2023/04/24 09:05:46;;;;;;;9.70;7.53;;;11.60;99.90;13.70;95884.00;;;;5102956;28;20593;-65
2023/04/24 09:08:35;;;;;;;4.80;3.40;;;11.60;99.90;13.30;95880.00;;;;5105802;28;20190;-64
2023/04/24 09:11:25;;;;;;;4.47;2.10;;;11.60;99.90;13.10;95885.00;;;;5108244;28;20198;-65
2023/04/24 09:14:14;;;;;;;1.87;1.70;;;11.50;99.90;13.00;95884.00;;;;5100483;28;20251;-64
2023/04/24 09:17:05;;;;;;;2.80;1.33;;;11.50;99.90;12.90;95872.00;;;;5106821;28;20689;-65
2023/04/24 09:19:54;;;;;;;3.60;2.17;;;11.40;99.90;13.30;95870.00;;;;5105071;28;20198;-65
2023/04/24 09:22:44;;;;;;;3.37;2.07;;;11.40;99.90;13.20;95878.00;;;;5108260;28;20214;-64
2023/04/24 09:25:34;;;;;;;3.57;2.37;;;11.40;99.90;13.30;95877.00;;;;5104861;28;20256;-65
2023/04/24 09:28:28;;;;;;;2.23;2.03;;;11.40;99.90;13.40;95876.00;;;;5098141;28;20203;-64
2023/04/24 09:31:22;;;;;;;2.40;2.10;;;11.50;99.90;13.60;95876.00;;;;5099494;28;20296;-65
2023/04/24 09:34:13;;;;;;;2.67;1.20;;;11.50;99.90;13.80;95865.00;;;;5103230;28;20227;-65
2023/04/24 09:37:01;;;;;;;2.47;2.00;;;11.60;99.90;13.80;95864.00;;;;5105679;28;20194;-65
2023/04/24 09:40:10;;;;;;;1.63;1.33;;;11.70;99.90;13.70;95862.00;;;;5108959;28;20223;-65
2023/04/24 09:43:01;;;;;;;4.30;1.87;;;11.80;99.90;13.50;95862.00;;;;5109279;27;20218;-65
2023/04/24 09:45:49;;;;;;;1.67;1.57;;;11.80;99.90;13.50;95856.00;;;;5108434;28;20286;-65
2023/04/24 09:48:39;;;;;;;2.33;1.67;;;11.80;99.90;13.60;95857.00;;;;5098705;28;20191;-65
2023/04/24 09:51:37;;;;;;;3.53;2.87;;;11.90;99.90;14.00;95852.00;;;;5108537;28;20202;-65
2023/04/24 09:54:26;;;;;;;3.70;3.27;;;11.90;99.90;14.50;95848.00;;;;5108955;28;20303;-65
2023/04/24 09:57:16;;;;;;;5.13;4.23;;;12.10;99.90;14.90;95849.00;;;;5109507;28;20303;-65
2023/04/24 10:00:07;;;;;;;8.47;5.03;;;12.40;99.90;14.90;95842.00;;;;5097910;27;20225;-64
2023/04/24 10:03:03;;;;;;;8.83;6.17;;;12.60;99.90;15.30;95839.00;;;;5104923;28;20222;-65
2023/04/24 10:05:53;;;;;;;10.03;6.27;;;12.80;99.90;15.60;95846.00;;;;5108913;28;20198;-65
2023/04/24 10:08:46;;;;;;;7.97;5.50;;;13.00;99.90;15.50;95841.00;;;;5098970;28;20252;-64
2023/04/24 10:11:35;;;;;;;10.53;4.90;;;13.20;99.90;15.90;95847.00;;;;5104480;28;20279;-65
2023/04/24 10:14:26;;;;;;;7.27;5.27;;;13.30;99.90;16.00;95846.00;;;;5108636;28;20587;-65
2023/04/24 10:17:15;;;;;;;6.23;5.40;;;13.50;99.90;16.10;95853.00;;;;5101053;28;20242;-65
2023/04/24 10:20:06;;;;;;;2.40;2.20;;;13.60;99.90;15.60;95849.00;;;;5104716;28;20545;-65
2023/04/24 10:22:55;;;;;;;3.47;2.57;;;13.60;99.90;15.70;95853.00;;;;5104163;28;20717;-65
2023/04/24 10:25:46;;;;;;;5.33;2.57;;;13.60;99.90;15.80;95849.00;;;;5108885;28;20211;-65
2023/04/24 10:28:37;;;;;;;2.73;2.37;;;13.60;99.90;15.90;95846.00;;;;5102603;28;20240;-65
2023/04/24 10:31:27;;;;;;;4.53;2.50;;;13.70;99.90;15.80;95850.00;;;;5107137;28;20195;-65
2023/04/24 10:34:18;;;;;;;2.67;2.27;;;13.70;99.90;15.90;95850.00;;;;5105154;28;20258;-65
2023/04/24 10:37:07;;;;;;;3.33;2.53;;;13.70;99.90;16.00;95839.00;;;;5103477;28;20255;-65
2023/04/24 10:39:56;;;;;;;2.83;2.53;;;13.80;99.90;16.10;95841.00;;;;5102751;28;20747;-65
2023/04/24 10:42:49;;;;;;;2.87;2.37;;;13.80;99.90;16.10;95845.00;;;;5108207;28;20222;-65
2023/04/24 10:45:38;;;;;;;2.10;1.90;;;13.90;99.90;16.30;95841.00;;;;5102102;28;20277;-65
2023/04/24 10:48:28;;;;;;;4.13;2.10;;;13.90;99.90;16.30;95843.00;;;;5107017;28;20215;-65
2023/04/24 10:51:17;;;;;;;2.87;1.90;;;14.00;99.90;16.20;95848.00;;;;5104746;28;20310;-65
2023/04/24 10:54:24;;;;;;;1.73;1.57;;;14.00;99.90;16.40;95840.00;;;;5103584;28;20226;-65
2023/04/24 10:57:30;;;;;;;2.17;1.50;;;14.00;99.90;16.40;95838.00;;;;5105495;28;20908;-65
2023/04/24 11:00:27;;;;;;;1.43;1.13;;;14.10;99.90;16.30;95839.00;;;;5107700;28;20285;-65
2023/04/24 11:03:28;;;;;;;2.10;1.63;;;14.20;99.90;16.40;95824.00;;;;5107961;28;20580;-65
2023/04/24 11:06:31;;;;;;;1.93;1.73;;;14.10;99.90;15.70;95826.00;;;;5105301;28;20202;-65
2023/04/24 11:09:22;;;;;;;1.87;1.73;;;14.10;99.90;16.30;95823.00;;;;5105995;28;20206;-65
2023/04/24 11:12:14;;;;;;;3.47;1.90;;;14.10;99.90;16.40;95832.00;;;;5107371;28;20218;-65
2023/04/24 11:15:03;;;;;;;3.73;2.20;;;14.10;99.90;16.40;95821.00;;;;5100874;28;20218;-65
2023/04/24 11:17:57;;;;;;;1.97;1.80;;;14.30;99.90;17.10;95816.00;;;;5107600;28;20198;-65
2023/04/24 11:20:47;;;;;;;1.97;1.50;;;14.40;99.90;17.30;95819.00;;;;5101550;28;20195;-65
2023/04/24 11:23:37;;;;;;;2.10;1.67;;;14.70;99.90;16.40;95795.00;;;;5106589;28;20255;-64
2023/04/24 11:26:32;;;;;;;2.23;1.47;;;14.80;99.90;17.00;95804.00;;;;5107285;28;20194;-65
2023/04/24 11:29:21;;;;;;;1.70;1.60;;;14.90;99.90;17.80;95817.00;;;;5108810;28;20408;-65
2023/04/24 11:32:25;;;;;;;1.37;1.07;;;15.00;99.90;18.20;95826.00;;;;5108565;28;20701;-65
2023/04/24 11:35:18;;;;;;;1.53;1.40;;;15.30;99.90;18.00;95822.00;;;;5108659;28;20224;-65
2023/04/24 11:38:08;;;;;;;2.53;1.37;;;15.50;99.90;18.10;95821.00;;;;5111744;28;20271;-65
2023/04/24 11:41:03;;;;;;;2.27;0.90;;;15.60;99.90;18.00;95836.00;;;;5110761;28;20232;-64
2023/04/24 11:43:52;;;;;;;1.20;1.10;;;15.70;99.90;18.10;95839.00;;;;5107274;28;20194;-65
2023/04/24 11:46:40;;;;;;;2.80;1.20;;;15.70;99.90;17.80;95831.00;;;;5104223;28;20210;-65
2023/04/24 11:49:29;;;;;;;3.67;1.10;;;15.70;99.90;17.70;95835.00;;;;5109810;28;20205;-65
2023/04/24 11:52:20;;;;;;;1.13;0.90;;;15.60;99.90;17.70;95829.00;;;;5109416;28;20852;-65
2023/04/24 11:55:25;;;;;;;1.80;1.00;;;15.60;99.90;17.90;95831.00;;;;5108936;28;20351;-65
2023/04/24 11:58:14;;;;;;;3.53;1.20;;;15.60;99.90;18.00;95830.00;;;;5107842;28;20206;-65
2023/04/24 12:01:04;;;;;;;2.50;1.00;;;15.70;99.90;18.10;95834.00;;;;5110847;28;20244;-65
2023/04/24 12:04:01;;;;;;;3.00;1.57;;;15.70;99.90;18.20;95833.00;;;;5106251;28;20240;-65
2023/04/24 12:07:02;;;;;;;6.73;3.80;;;15.80;99.90;17.90;95834.00;;;;5109396;28;20234;-65
2023/04/24 12:09:59;;;;;;;14.43;6.80;;;15.80;99.90;17.80;95837.00;;;;5105744;28;20247;-65
2023/04/24 12:12:50;;;;;;;11.07;6.03;;;15.70;99.90;17.70;95841.00;;;;5105458;28;20268;-65
2023/04/24 12:15:41;;;;;;;1.93;1.73;;;15.60;99.90;17.20;95838.00;;;;5096332;28;20700;-65
2023/04/24 12:18:30;;;;;;;1.57;1.17;;;15.50;99.90;17.00;95836.00;;;;5111269;28;20209;-65
2023/04/24 12:21:21;;;;;;;1.53;0.97;;;15.40;99.90;16.70;95839.00;;;;5104283;28;20204;-65
2023/04/24 12:24:10;;;;;;;1.67;1.30;;;15.20;99.90;17.40;95842.00;;;;5099675;28;20195;-65
2023/04/24 12:27:01;;;;;;;4.57;3.03;;;15.20;99.90;17.40;95838.00;;;;5107453;28;20202;-65
2023/04/24 12:29:54;;;;;;;4.07;2.27;;;15.30;99.90;17.40;95836.00;;;;5107062;28;20195;-65
2023/04/24 12:32:44;;;;;;;1.63;1.30;;;15.30;99.90;17.70;95831.00;;;;5109654;28;20223;-64
2023/04/24 12:35:35;;;;;;;2.27;1.60;;;15.30;99.90;17.90;95831.00;;;;5102260;28;20226;-64
2023/04/24 12:38:26;;;;;;;4.20;2.43;;;15.40;99.90;17.70;95818.00;;;;5104140;28;20195;-64
2023/04/24 12:41:15;;;;;;;14.50;8.17;;;15.50;99.90;17.80;95821.00;;;;5107032;28;20194;-65
2023/04/24 12:44:12;;;;;;;4.67;3.50;;;15.50;99.90;17.70;95826.00;;;;5108849;28;20191;-65